Neenah, WI (54956)

4:47 PM CST on February 01, 2015 (GMT -0600)
Near Heckrodt Wetland Reserve | Change Station
CLOSE
Current Station
Personal Weather Station
Location: Menasha, WI
Elevation: 755 ft
Nearby Weather Stations

Elev 755 ft 44.21 °N, 88.43 °W | Updated 10 seconds ago

Snow
Snow
7.5 °F
Feels Like -14 °F
N
24.0
Wind Variable Wind from NNE
Gusts 24.0 mph

Today
High -- | Low -- °F
--% Chance of Precip.
Yesterday
High -- | Low -- °F
Precip. -- in
7:11 AM 5:03 PM
Waxing Gibbous, 96% visible
Pressure 30.06 in
Visibility 4.0 miles
Clouds Overcast 4000 ft
Windchill -14 °F
Dew Point 5 °F
Humidity 88%
Rainfall 0.00 in
Snow Depth Not available.
UV 0 out of 12
Pollen .10 out of 12
Air Quality Not available.
Flu Activity Not available.
METAR KATW 012245Z 03019G25KT 4SM -SN OVC040 M13/M20 A3006

More Conditions Fewer Conditions

Pressure 30.06 in
Visibility 4.0 miles
Clouds Overcast 4000 ft
Windchill -14 °F
Dew Point 5 °F
Humidity 88%
Rainfall 0.00 in
Snow Depth Not available.
UV 0 out of 12
Pollen .10 out of 12
Air Quality Not available.
Flu Activity Not available.
METAR KATW 012245Z 03019G25KT 4SM -SN OVC040 M13/M20 A3006

More Conditions Fewer Conditions

10-Day Weather Forecast

Almanac

Astronomy

Feb. 01, 2015 Rise Set
Actual Time
Civil Twilight
Nautical Twilight
Astronomical Twilight
Moon
Length of Visible Light
Length of Day
Tomorrow will be .
, % of the Moon is Illuminated

Today's Extremes

State Highs State Lows

Community

WunderPhotos

Upload Photos

1,792,581 photos uploaded!

WunderBlogs® & News

Nearby

Air Quality

  Air Quality AQ Index Pollutant
Not available.

Snow Depth

Station Depth Elevation

Earthquake Activity

City Distance Mag. Time & Date
Minimum magnitude displayed is 2.5.

Coastal Water Temperatures

Place Temperature

Nearby Weather Stations